Latest Weather Observations for Flinders Island Airport

IDT60801

Issued at 9:31 pm EST Thursday 22 June 2017 (issued every 30 minutes, with the page automatically refreshed every 10 minutes)

About weather observations | Map of weather stations | Latest weather observations for TAS | Other Formats
Station Details ID: 099005 Name: FLINDERS ISLAND AIRPORT Lat: -40.09 Lon: 148.00 Height: 9.0 m
Data from the previous 72 hours. | See also: Recent months at Flinders Island Airport
Date/Time
EST
Temp
°C
App
Temp
°C
Dew
Point
°C
Rel
Hum
%
Delta-T
°C
Wind Press
QNH
hPa
Press
MSL
hPa
Rain since
9am
mm
Dir  Spd
km/h
Gust
km/h
Spd
kts
Gust
kts
22/09:30pm 11.3 7.4 7.0 75 2.0 NW 17 24 9 13 1020.9 1020.9 0.0
22/09:00pm 10.5 7.6 6.6 77 1.8 N 11 15 6 8 1021.3 1021.3 0.0
22/08:30pm 9.3 6.7 6.0 80 1.5 NNW 9 11 5 6 1021.5 1021.5 0.0
22/08:00pm 8.5 5.8 5.6 82 1.3 NNW 9 11 5 6 1021.8 1021.8 0.0
22/07:30pm 8.5 5.8 5.8 83 1.2 NW 9 13 5 7 1022.1 1022.1 0.0
22/07:00pm 8.8 6.2 5.9 82 1.3 N 9 11 5 6 1022.2 1022.2 0.0
22/06:30pm 10.2 7.7 6.5 78 1.7 N 9 13 5 7 1022.3 1022.3 0.0
22/06:00pm 10.2 7.5 7.3 82 1.4 N 11 13 6 7 1022.5 1022.5 0.0
22/05:30pm 8.9 6.0 6.3 84 1.2 WNW 11 13 6 7 1022.8 1022.8 0.0
22/05:00pm 10.0 7.6 6.9 81 1.5 NW 9 13 5 7 1023.0 1023.0 0.0
22/04:30pm 10.8 7.6 6.7 76 1.9 WNW 13 17 7 9 1023.2 1023.2 0.0
22/04:00pm 11.0 7.1 7.1 77 1.8 W 17 20 9 11 1023.4 1023.4 0.0
22/03:30pm 11.1 7.3 5.6 69 2.5 W 15 17 8 9 1023.5 1023.5 0.0
22/03:00pm 12.3 8.5 5.9 65 3.0 WNW 15 20 8 11 1023.5 1023.5 0.0
22/02:30pm 12.4 8.1 5.3 62 3.3 WNW 17 24 9 13 1023.9 1023.9 0.0
22/02:00pm 12.3 7.5 4.8 60 3.4 WNW 19 26 10 14 1024.2 1024.2 0.0
22/01:30pm 12.0 7.7 5.2 63 3.1 WNW 17 22 9 12 1024.7 1024.7 0.0
22/01:00pm 12.0 8.3 6.3 68 2.7 WNW 15 17 8 9 1025.1 1025.1 0.0
22/12:30pm 11.9 7.7 5.8 66 2.8 WNW 17 20 9 11 1025.6 1025.6 0.0
22/12:00pm 11.9 8.5 5.8 66 2.8 WNW 13 24 7 13 1026.0 1026.0 0.0
22/11:30am 12.1 8.2 5.3 63 3.1 WNW 15 19 8 10 1026.4 1026.4 0.0
22/11:00am 12.1 8.3 4.1 58 3.6 W 13 17 7 9 1026.5 1026.5 0.0
22/10:30am 12.0 8.3 4.2 59 3.5 W 13 17 7 9 1026.9 1026.9 0.0
22/10:00am 12.0 8.3 4.5 60 3.4 WSW 13 17 7 9 1027.2 1027.2 0.0
22/09:30am 11.7 7.2 4.4 61 3.3 W 17 20 9 11 1027.4 1027.4 0.0
22/09:00am 11.4 10.3 6.7 73 2.2 N 2 11 1 6 1027.3 1027.3 0.0
22/08:30am 8.3 6.2 6.8 90 0.7 NE 7 9 4 5 1027.4 1027.4 0.0
22/08:00am 7.0 4.7 5.6 91 0.6 ENE 7 9 4 5 1027.5 1027.5 0.0
22/07:30am 6.6 4.3 5.9 95 0.3 NNE 7 9 4 5 1027.7 1027.7 0.0
22/07:00am 5.7 2.9 5.1 96 0.3 NE 9 11 5 6 1027.5 1027.5 0.0
22/06:30am 5.4 2.2 5.0 97 0.2 ENE 11 13 6 7 1027.5 1027.5 0.0
22/06:00am 4.7 1.0 4.4 98 0.1 ENE 13 15 7 8 1027.6 1027.6 0.0
22/05:30am 3.9 0.1 3.8 99 0.0 ENE 13 17 7 9 1027.4 1027.4 0.0
22/05:00am 3.5 -0.8 3.4 99 0.0 ENE 15 15 8 8 1027.5 1027.5 0.0
22/04:30am 2.1 -2.0 2.0 99 0.0 ENE 13 15 7 8 1027.3 1027.3 0.0
22/04:00am 2.0 -2.6 1.7 98 0.1 ENE 15 17 8 9 1027.3 1027.3 0.0
22/03:30am 2.6 -1.5 2.3 98 0.1 ENE 13 17 7 9 1027.5 1027.5 0.0
22/03:00am 2.7 -1.8 2.4 98 0.1 ENE 15 17 8 9 1027.7 1027.7 0.0
22/02:30am 2.6 -1.1 2.3 98 0.1 ENE 11 13 6 7 1028.0 1028.0 0.0
22/02:00am 3.1 -1.3 2.7 97 0.2 ENE 15 17 8 9 1028.1 1028.1 0.0
22/01:30am 3.6 -0.3 3.2 97 0.2 ENE 13 15 7 8 1028.2 1028.2 0.0
22/01:00am 4.0 0.2 3.7 98 0.1 ENE 13 15 7 8 1028.5 1028.5 0.0
22/12:30am 3.4 -0.6 3.1 98 0.1 ENE 13 15 7 8 1028.6 1028.6 0.0
22/12:00am 2.8 -1.7 2.4 97 0.2 ENE 15 15 8 8 1028.8 1028.8 0.0
 
Date/Time
EST
Temp
°C
App
Temp
°C
Dew
Point
°C
Rel
Hum
%
Delta-T
°C
Wind Press
QNH
hPa
Press
MSL
hPa
Rain since
9am
mm
Dir  Spd
km/h
Gust
km/h
Spd
kts
Gust
kts
21/11:30pm 3.0 -1.5 2.4 96 0.2 ENE 15 15 8 8 1028.9 1028.9 0.0
21/11:00pm 3.5 -0.5 2.9 96 0.2 ENE 13 15 7 8 1029.0 1029.0 0.0
21/10:30pm 4.3 0.8 3.6 95 0.3 ENE 11 15 6 8 1029.1 1029.1 0.0
21/10:00pm 4.4 0.8 3.2 92 0.5 ENE 11 15 6 8 1028.9 1028.9 0.0
21/09:30pm 5.6 2.8 3.4 86 0.9 NE 7 9 4 5 1028.8 1028.8 0.0
21/09:00pm 8.3 5.5 5.2 81 1.4 N 9 11 5 6 1028.9 1028.9 0.0
21/08:30pm 8.9 6.3 6.0 82 1.3 ENE 9 9 5 5 1028.8 1028.8 0.0
21/08:00pm 9.8 7.0 5.0 72 2.1 NNE 9 11 5 6 1028.9 1028.9 0.0
21/07:30pm 9.1 6.4 5.8 80 1.5 ENE 9 11 5 6 1028.8 1028.8 0.0
21/07:00pm 9.1 6.1 5.8 80 1.5 ENE 11 13 6 7 1028.5 1028.5 0.0
21/06:30pm 10.6 7.3 4.5 66 2.7 WSW 11 15 6 8 1028.3 1028.3 0.0
21/06:00pm 10.9 6.4 4.1 63 3.0 W 17 20 9 11 1028.0 1028.0 0.0
21/05:30pm 10.9 7.8 3.7 61 3.2 SW 9 13 5 7 1027.8 1027.8 0.0
21/05:00pm 11.0 6.8 3.8 61 3.2 SW 15 20 8 11 1027.6 1027.6 0.0
21/04:30pm 11.1 6.6 4.3 63 3.0 SW 17 20 9 11 1027.2 1027.2 0.0
21/04:00pm 11.6 7.5 4.1 60 3.3 SW 15 19 8 10 1027.0 1027.0 0.0
21/03:30pm 11.2 6.2 4.4 63 3.1 WSW 20 30 11 16 1026.8 1026.8 0.0
21/03:00pm 11.9 7.0 5.1 63 3.1 WSW 20 28 11 15 1026.6 1026.6 0.0
21/02:30pm 11.9 6.6 5.1 63 3.1 WSW 22 30 12 16 1026.3 1026.3 0.0
21/02:00pm 11.5 6.5 4.7 63 3.1 SW 20 26 11 14 1026.1 1026.1 0.0
21/01:30pm 11.8 6.0 4.5 61 3.3 SW 24 30 13 16 1026.0 1026.0 0.0
21/01:00pm 12.3 5.8 4.8 60 3.4 WSW 28 35 15 19 1026.0 1026.0 0.0
21/12:30pm 12.8 6.7 4.8 58 3.7 WSW 26 35 14 19 1026.1 1026.1 0.0
21/12:00pm 11.8 4.9 4.5 61 3.3 WSW 30 35 16 19 1026.3 1026.3 0.0
21/11:30am 12.3 5.1 5.2 62 3.3 WSW 32 37 17 20 1026.4 1026.4 0.0
21/11:00am 12.3 4.6 5.5 63 3.1 WSW 35 43 19 23 1026.4 1026.4 0.0
21/10:30am 12.1 4.8 5.5 64 3.1 WSW 33 43 18 23 1026.5 1026.5 0.0
21/10:00am 12.1 4.0 5.3 63 3.1 WSW 37 48 20 26 1026.1 1026.1 0.0
21/09:30am 11.7 3.1 4.7 62 3.2 WSW 39 50 21 27 1025.6 1025.6 0.0
21/09:00am 11.2 2.6 4.9 65 2.8 WSW 39 48 21 26 1025.6 1025.6 0.8
21/08:30am 11.3 2.8 5.2 66 2.8 WSW 39 48 21 26 1025.1 1025.1 0.8
21/08:00am 11.2 1.9 4.9 65 2.8 WSW 43 50 23 27 1024.4 1024.4 0.8
21/07:30am 11.3 1.9 4.3 62 3.1 WSW 43 52 23 28 1024.2 1024.2 0.8
21/07:00am 11.3 2.7 4.7 64 3.0 WSW 39 52 21 28 1023.9 1023.9 0.8
21/06:30am 11.3 2.3 4.7 64 3.0 WSW 41 50 22 27 1023.4 1023.4 0.8
21/06:00am 11.7 2.4 4.9 63 3.1 WSW 43 54 23 29 1022.8 1022.8 0.8
21/05:30am 11.7 2.7 6.2 69 2.6 WSW 43 50 23 27 1022.3 1022.3 0.8
21/05:00am 11.9 2.9 6.2 68 2.7 W 43 52 23 28 1021.8 1021.8 0.8
21/04:30am 11.9 2.7 6.2 68 2.7 W 44 54 24 29 1021.3 1021.3 0.8
21/04:00am 11.8 2.2 6.3 69 2.6 WSW 46 56 25 30 1021.3 1021.3 0.8
21/03:30am 12.1 2.8 7.6 74 2.2 W 46 59 25 32 1020.9 1020.9 0.8
21/03:00am 12.5 3.6 7.6 72 2.4 W 44 54 24 29 1020.5 1020.5 0.8
21/02:30am 12.5 3.6 7.8 73 2.3 W 44 56 24 30 1020.4 1020.4 0.8
21/02:00am 12.7 4.2 8.4 75 2.1 W 43 54 23 29 1020.3 1020.3 0.8
21/01:37am 12.6 6.1 10.5 87 1.1 W 35 54 19 29 1020.0 1020.0 0.8
21/01:30am 12.4 6.7 11.0 91 0.7 W 32 41 17 22 1019.9 1019.9 0.8
21/01:12am 11.8 6.9 11.2 96 0.3 W 28 35 15 19 1020.0 1020.0 0.8
21/01:00am 11.5 5.2 10.9 96 0.3 W 35 52 19 28 1020.1 1020.1 0.8
21/12:41am 11.7 3.0 10.1 90 0.8 WNW 46 69 25 37 1020.2 1020.2 0.4
21/12:38am 13.4 5.3 10.2 81 1.7 WNW 43 69 23 37 1020.1 1020.1 0.0
21/12:37am 14.0 6.2 11.0 82 1.6 WNW 43 69 23 37 1019.8 1019.8 0.0
21/12:30am 14.1 6.6 10.7 80 1.8 NW 41 57 22 31 1019.5 1019.5 0.0
21/12:00am 14.0 6.4 10.4 79 1.9 NW 41 52 22 28 1019.7 1019.7 0.0
 
Date/Time
EST
Temp
°C
App
Temp
°C
Dew
Point
°C
Rel
Hum
%
Delta-T
°C
Wind Press
QNH
hPa
Press
MSL
hPa
Rain since
9am
mm
Dir  Spd
km/h
Gust
km/h
Spd
kts
Gust
kts
20/11:30pm 14.0 6.4 10.4 79 1.9 NW 41 57 22 31 1019.9 1019.9 0.0
20/11:20pm 14.1 6.4 10.1 77 2.1 NW 41 59 22 32 1019.9 1019.9 0.0
20/11:00pm 14.2 6.4 9.8 75 2.3 NW 41 56 22 30 1020.2 1020.2 0.0
20/10:30pm 14.3 6.5 9.9 75 2.3 NW 41 57 22 31 1020.2 1020.2 0.0
20/10:20pm 14.2 6.7 9.6 74 2.4 NW 39 57 21 31 1020.1 1020.1 0.0
20/10:00pm 14.3 6.9 9.9 75 2.3 NW 39 56 21 30 1020.2 1020.2 0.0
20/09:32pm 14.3 7.3 10.1 76 2.2 NW 37 56 20 30 1020.5 1020.5 0.0
20/09:30pm 14.3 7.0 10.1 76 2.2 NW 39 56 21 30 1020.5 1020.5 0.0
20/09:28pm 14.3 7.3 10.1 76 2.2 NW 37 56 20 30 1020.5 1020.5 0.0
20/09:00pm 14.2 8.0 10.0 76 2.2 NW 33 46 18 25 1020.8 1020.8 0.0
20/08:30pm 14.1 7.5 10.1 77 2.1 NW 35 44 19 24 1021.0 1021.0 0.0
20/08:00pm 13.9 7.8 9.9 77 2.1 NW 32 48 17 26 1021.2 1021.2 0.0
20/07:30pm 13.7 7.1 9.9 78 2.0 NW 35 46 19 25 1021.2 1021.2 0.0
20/07:00pm 13.3 7.0 9.7 79 1.8 NW 33 44 18 24 1021.3 1021.3 0.0
20/06:30pm 13.2 7.4 9.5 78 1.9 NW 30 41 16 22 1021.5 1021.5 0.0
20/06:00pm 12.9 7.2 9.7 81 1.6 NW 30 37 16 20 1021.7 1021.7 0.0
20/05:30pm 13.1 7.7 9.5 79 1.8 NW 28 37 15 20 1021.5 1021.5 0.0
20/05:00pm 12.4 7.7 9.1 80 1.7 NW 24 32 13 17 1021.4 1021.4 0.0
20/04:30pm 12.9 7.7 8.8 76 2.1 NW 26 35 14 19 1021.6 1021.6 0.0
20/04:00pm 13.4 7.4 8.7 73 2.3 WNW 30 39 16 21 1021.9 1021.9 0.0
20/03:30pm 13.7 7.8 9.0 73 2.4 WNW 30 41 16 22 1021.9 1021.9 0.0
20/03:00pm 13.8 7.8 8.6 71 2.6 NW 30 44 16 24 1021.9 1021.9 0.0
20/02:30pm 13.8 7.3 8.2 69 2.8 NW 32 41 17 22 1021.8 1021.8 0.0
20/02:00pm 14.2 7.8 8.4 68 2.9 WNW 32 44 17 24 1022.0 1022.0 0.0
20/01:30pm 14.5 8.2 9.1 70 2.8 NW 32 41 17 22 1022.3 1022.3 0.0
20/01:00pm 14.9 8.5 9.5 70 2.8 NW 33 41 18 22 1022.7 1022.7 0.0
20/12:30pm 15.1 8.9 9.2 68 3.0 NW 32 39 17 21 1023.2 1023.2 0.0
20/12:00pm 14.7 9.0 9.9 73 2.5 NW 30 43 16 23 1023.8 1023.8 0.0
20/11:30am 14.7 9.3 9.5 71 2.7 NW 28 35 15 19 1024.2 1024.2 0.0
20/11:00am 14.7 10.5 8.2 65 3.2 NW 20 32 11 17 1024.7 1024.7 0.0
20/10:30am 14.4 9.6 8.8 69 2.8 NW 24 37 13 20 1025.1 1025.1 0.0
20/10:00am 14.7 9.3 8.2 65 3.2 NW 26 32 14 17 1025.2 1025.2 0.0
20/09:30am 14.0 10.1 8.8 71 2.6 WNW 19 28 10 15 1025.2 1025.2 0.0
20/09:00am 14.0 9.2 7.5 65 3.2 NW 22 30 12 16 1025.3 1025.3 0.4
20/08:30am 13.7 10.6 10.3 80 1.8 NW 17 26 9 14 1025.5 1025.5 0.4
20/08:00am 13.3 11.0 10.3 82 1.5 NW 13 17 7 9 1025.4 1025.4 0.4
20/07:30am 12.6 11.0 10.1 85 1.3 NNW 9 13 5 7 1025.5 1025.5 0.4
20/07:00am 12.2 9.0 9.9 86 1.2 WNW 17 22 9 12 1025.6 1025.6 0.4
20/06:30am 12.8 10.6 10.9 88 1.0 NW 13 17 7 9 1025.5 1025.5 0.4
20/06:00am 12.7 10.7 11.6 93 0.6 WNW 13 19 7 10 1025.5 1025.5 0.4
20/05:30am 12.7 10.2 12.2 97 0.3 WNW 17 20 9 11 1025.4 1025.4 0.4
20/05:00am 12.4 10.5 11.9 97 0.3 WNW 13 17 7 9 1025.5 1025.5 0.4
20/04:37am 12.7 10.4 11.9 95 0.4 WNW 15 19 8 10 1025.5 1025.5 0.4
20/04:30am 12.8 10.2 11.9 94 0.5 WNW 17 28 9 15 1025.6 1025.6 0.4
20/04:24am 12.8 9.7 11.7 93 0.6 W 19 28 10 15 1025.7 1025.7 0.4
20/04:20am 12.9 10.2 11.8 93 0.6 W 17 26 9 14 1025.7 1025.7 0.2
20/04:00am 12.7 9.9 11.3 91 0.7 WNW 17 20 9 11 1025.8 1025.8 0.2
20/03:30am 12.7 10.4 11.8 94 0.5 WNW 15 20 8 11 1026.0 1026.0 0.2
20/03:00am 12.1 10.1 11.5 96 0.3 WNW 13 22 7 12 1026.5 1026.5 0.2
20/02:30am 12.3 9.4 10.9 91 0.7 WNW 17 20 9 11 1026.7 1026.7 0.2
20/02:00am 13.0 9.9 12.1 94 0.5 WNW 20 26 11 14 1026.8 1026.8 0.2
20/01:30am 12.5 8.5 11.7 95 0.4 W 24 32 13 17 1026.8 1026.8 0.2
20/01:00am 12.7 9.7 11.8 94 0.5 WNW 19 30 10 16 1026.9 1026.9 0.2
20/12:30am 13.2 10.0 11.8 91 0.7 WNW 20 30 11 16 1027.1 1027.1 0.0
20/12:00am 13.5 9.5 11.9 90 0.9 WNW 24 32 13 17 1027.3 1027.3 0.0
 
Date/Time
EST
Temp
°C
App
Temp
°C
Dew
Point
°C
Rel
Hum
%
Delta-T
°C
Wind Press
QNH
hPa
Press
MSL
hPa
Rain since
9am
mm
Dir  Spd
km/h
Gust
km/h
Spd
kts
Gust
kts
19/11:30pm 13.1 9.4 11.5 90 0.8 WNW 22 30 12 16 1027.5 1027.5 0.0
19/11:00pm 13.1 9.3 11.3 89 0.9 WNW 22 30 12 16 1027.6 1027.6 0.0
19/10:30pm 13.4 9.0 11.6 89 1.0 WNW 26 35 14 19 1027.6 1027.6 0.0
19/10:00pm 13.8 9.2 12.2 90 0.9 WNW 28 33 15 18 1027.7 1027.7 0.0

Other Formats:

Comma delimited format used in spreadsheet applications
http://www.bom.gov.au/fwo/IDT60801/IDT60801.94980.axf

JavaScript Object Notation format (JSON) in row-major order
http://www.bom.gov.au/fwo/IDT60801/IDT60801.94980.json